createdAt,value
2023-04-30T00:00:24.756Z,102331.06
2023-04-30T00:02:51.311Z,102326.25
2023-04-30T00:05:18.209Z,102334.47
2023-04-30T00:07:44.704Z,102322.25
2023-04-30T00:10:11.357Z,102317.84
2023-04-30T00:12:38.238Z,102314.25
2023-04-30T00:15:05.163Z,102313.84
2023-04-30T00:17:31.769Z,102311.31
2023-04-30T00:19:58.322Z,102291.94
2023-04-30T00:22:24.870Z,102308.34
2023-04-30T00:24:51.911Z,102310.06
2023-04-30T00:27:18.453Z,102320.59
2023-04-30T00:29:45.006Z,102323.53
2023-04-30T00:32:11.529Z,102332.59
2023-04-30T00:34:38.111Z,102327.34
2023-04-30T00:37:04.647Z,102329.44
2023-04-30T00:39:31.353Z,102319.97
2023-04-30T00:41:57.975Z,102326.06
2023-04-30T00:44:24.510Z,102319.34
2023-04-30T00:46:50.967Z,102332.19
2023-04-30T00:49:17.646Z,102321.44
2023-04-30T00:51:45.672Z,102321.84
2023-04-30T00:54:12.986Z,102318.47
2023-04-30T00:56:39.791Z,102324.38
2023-04-30T00:59:06.406Z,102319.97
2023-04-30T01:01:33.336Z,102322.50
2023-04-30T01:04:00.956Z,102326.28
2023-04-30T01:06:28.154Z,102318.91
2023-04-30T01:08:54.976Z,102315.13
2023-04-30T01:11:31.884Z,102316.59
2023-04-30T01:14:03.885Z,102318.50
2023-04-30T01:16:36.214Z,102310.69
2023-04-30T01:19:11.704Z,102317.44
2023-04-30T01:21:42.113Z,102320.59
2023-04-30T01:24:30.235Z,102314.69
2023-04-30T01:27:06.945Z,102309.44
2023-04-30T01:29:35.898Z,102318.06
2023-04-30T01:32:03.617Z,102316.38
2023-04-30T01:34:30.511Z,102322.88
2023-04-30T01:37:31.269Z,102322.50
2023-04-30T01:40:00.742Z,102327.50
2023-04-30T01:42:54.417Z,102327.94
2023-04-30T01:45:41.600Z,102322.22
2023-04-30T01:48:56.148Z,102323.09
2023-04-30T01:51:27.547Z,102318.22
2023-04-30T01:53:57.929Z,102319.69
2023-04-30T01:56:32.502Z,102322.84
2023-04-30T01:59:00.700Z,102326.00
2023-04-30T02:01:28.882Z,102324.72
2023-04-30T02:03:55.817Z,102328.50
2023-04-30T02:06:31.352Z,102326.56
2023-04-30T02:09:03.188Z,102328.44
2023-04-30T02:11:30.307Z,102324.94
2023-04-30T02:13:57.084Z,102329.72
2023-04-30T02:16:24.384Z,102315.41
2023-04-30T02:18:51.580Z,102325.72
2023-04-30T02:21:18.418Z,102328.22
2023-04-30T02:23:45.268Z,102331.19
2023-04-30T02:26:11.749Z,102327.59
2023-04-30T02:28:38.346Z,102322.31
2023-04-30T02:31:04.964Z,102325.91
2023-04-30T02:33:31.661Z,102319.59
2023-04-30T02:36:00.028Z,102323.59
2023-04-30T02:38:26.732Z,102328.00
2023-04-30T02:40:53.345Z,102322.53
2023-04-30T02:43:20.967Z,102327.59
2023-04-30T02:45:47.646Z,102318.72
2023-04-30T02:48:14.675Z,102322.72
2023-04-30T02:50:41.212Z,102316.19
2023-04-30T02:53:07.832Z,102317.47
2023-04-30T02:55:34.403Z,102313.88
2023-04-30T02:58:01.070Z,102323.34
2023-04-30T03:00:27.688Z,102318.28
2023-04-30T03:02:54.453Z,102313.25
2023-04-30T03:05:21.095Z,102312.78
2023-04-30T03:07:47.624Z,102317.81
2023-04-30T03:10:14.191Z,102316.13
2023-04-30T03:12:41.182Z,102327.06
2023-04-30T03:15:08.309Z,102320.31
2023-04-30T03:17:35.901Z,102320.31
2023-04-30T03:20:02.628Z,102334.38
2023-04-30T03:22:29.189Z,102323.22
2023-04-30T03:24:55.933Z,102321.72
2023-04-30T03:27:22.786Z,102317.69
2023-04-30T03:29:49.285Z,102324.84
2023-04-30T03:32:16.000Z,102322.09
2023-04-30T03:34:42.570Z,102316.84
2023-04-30T03:37:09.215Z,102328.81
2023-04-30T03:39:35.899Z,102327.13
2023-04-30T03:42:03.596Z,102317.66
2023-04-30T03:44:30.192Z,102322.28
2023-04-30T03:46:56.775Z,102331.06
2023-04-30T03:49:23.373Z,102335.88
2023-04-30T03:51:49.914Z,102321.81
2023-04-30T03:54:17.322Z,102327.63
2023-04-30T03:56:44.360Z,102331.81
2023-04-30T03:59:11.060Z,102328.25
2023-04-30T04:01:37.757Z,102329.47
2023-04-30T04:04:04.623Z,102325.47
2023-04-30T04:06:32.837Z,102329.44
2023-04-30T04:08:59.430Z,102333.03
2023-04-30T04:11:26.269Z,102314.25
2023-04-30T04:13:52.998Z,102338.41
2023-04-30T04:16:19.621Z,102327.50
2023-04-30T04:18:46.516Z,102337.59
2023-04-30T04:21:13.088Z,102339.25
2023-04-30T04:23:39.699Z,102339.03
2023-04-30T04:26:06.291Z,102342.78
2023-04-30T04:28:32.883Z,102340.06
2023-04-30T04:30:59.586Z,102340.91
2023-04-30T04:33:26.175Z,102337.53
2023-04-30T04:35:52.915Z,102339.41
2023-04-30T04:38:19.527Z,102341.50
2023-04-30T04:40:53.374Z,102333.06
2023-04-30T04:43:20.686Z,102341.25
2023-04-30T04:45:48.032Z,102341.69
2023-04-30T04:48:15.061Z,102351.38
2023-04-30T04:50:41.919Z,102339.63
2023-04-30T04:53:08.523Z,102345.94
2023-04-30T04:55:35.789Z,102338.38
2023-04-30T04:58:02.515Z,102349.28
2023-04-30T05:00:29.898Z,102357.28
2023-04-30T05:02:56.879Z,102345.09
2023-04-30T05:05:23.489Z,102349.09
2023-04-30T05:07:52.324Z,102359.44
2023-04-30T05:10:19.216Z,102361.06
2023-04-30T05:12:46.092Z,102356.06
2023-04-30T05:15:12.685Z,102347.69
2023-04-30T05:17:39.250Z,102352.31
2023-04-30T05:20:07.233Z,102362.00
2023-04-30T05:22:33.786Z,102356.34
2023-04-30T05:25:00.356Z,102350.28
2023-04-30T05:27:27.587Z,102348.19
2023-04-30T05:29:54.432Z,102350.91
2023-04-30T05:32:22.799Z,102354.13
2023-04-30T05:34:49.799Z,102351.16
2023-04-30T05:37:17.689Z,102349.47
2023-04-30T05:39:44.248Z,102354.94
2023-04-30T05:42:10.764Z,102344.00
2023-04-30T05:44:37.277Z,102350.13
2023-04-30T05:47:03.828Z,102351.19
2023-04-30T05:49:30.406Z,102352.31
2023-04-30T05:51:57.398Z,102353.59
2023-04-30T05:54:23.885Z,102347.94
2023-04-30T05:56:50.469Z,102351.28
2023-04-30T05:59:16.981Z,102345.44
2023-04-30T06:01:44.292Z,102350.69
2023-04-30T06:04:11.674Z,102347.56
2023-04-30T06:06:38.266Z,102348.44
2023-04-30T06:09:05.025Z,102348.25
2023-04-30T06:11:31.631Z,102345.09
2023-04-30T06:13:58.525Z,102342.19
2023-04-30T06:16:25.202Z,102341.34
2023-04-30T06:18:53.561Z,102340.06
2023-04-30T06:21:20.770Z,102342.19
2023-04-30T06:23:47.294Z,102332.97
2023-04-30T06:26:15.241Z,102333.59
2023-04-30T06:28:41.828Z,102337.00
2023-04-30T06:31:08.503Z,102341.00
2023-04-30T06:33:35.028Z,102342.28
2023-04-30T06:36:01.582Z,102340.19
2023-04-30T06:38:28.857Z,102345.88
2023-04-30T06:40:55.438Z,102342.72
2023-04-30T06:43:21.992Z,102346.13
2023-04-30T06:45:48.493Z,102352.84
2023-04-30T06:48:15.048Z,102352.44
2023-04-30T06:50:44.963Z,102352.72
2023-04-30T06:53:12.429Z,102351.88
2023-04-30T06:55:38.996Z,102350.41
2023-04-30T06:58:05.908Z,102349.13
2023-04-30T07:00:32.955Z,102361.34
2023-04-30T07:03:03.845Z,102354.41
2023-04-30T07:05:31.219Z,102352.97
2023-04-30T07:07:58.750Z,102355.28
2023-04-30T07:10:26.187Z,102345.00
2023-04-30T07:12:52.871Z,102352.78
2023-04-30T07:15:19.785Z,102347.91
2023-04-30T07:17:46.360Z,102345.59
2023-04-30T07:20:14.715Z,102352.16
2023-04-30T07:22:45.878Z,102345.22
2023-04-30T07:25:13.254Z,102345.44
2023-04-30T07:27:40.822Z,102345.44
2023-04-30T07:30:10.120Z,102346.69
2023-04-30T07:32:37.965Z,102339.13
2023-04-30T07:35:04.921Z,102340.38
2023-04-30T07:37:33.019Z,102336.59
2023-04-30T07:40:01.562Z,102337.44
2023-04-30T07:42:28.114Z,102344.19
2023-04-30T07:44:54.815Z,102330.06
2023-04-30T07:47:21.420Z,102334.06
2023-04-30T07:49:47.986Z,102344.16
2023-04-30T07:52:14.538Z,102339.09
2023-04-30T07:54:41.245Z,102341.22
2023-04-30T07:57:07.827Z,102339.13
2023-04-30T07:59:34.416Z,102341.63
2023-04-30T08:02:01.537Z,102340.16
2023-04-30T08:04:28.192Z,102346.47
2023-04-30T08:06:54.769Z,102345.19
2023-04-30T08:09:21.266Z,102346.63
2023-04-30T08:11:47.754Z,102348.34
2023-04-30T08:14:14.342Z,102355.06
2023-04-30T08:16:41.089Z,102351.69
2023-04-30T08:19:07.709Z,102350.41
2023-04-30T08:21:34.318Z,102359.88
2023-04-30T08:24:00.895Z,102361.78
2023-04-30T08:26:27.386Z,102355.66
2023-04-30T08:28:53.971Z,102343.00
2023-04-30T08:31:20.760Z,102353.34
2023-04-30T08:33:47.329Z,102351.22
2023-04-30T08:36:13.894Z,102351.38
2023-04-30T08:38:40.900Z,102353.06
2023-04-30T08:41:13.057Z,102354.53
2023-04-30T08:43:40.693Z,102346.91
2023-04-30T08:46:08.003Z,102345.41
2023-04-30T08:48:34.865Z,102350.19
2023-04-30T08:51:02.439Z,102349.78
2023-04-30T08:53:35.309Z,102353.94
2023-04-30T08:56:01.950Z,102353.50
2023-04-30T08:58:28.445Z,102347.59
2023-04-30T09:00:55.010Z,102345.00
2023-04-30T09:03:23.668Z,102341.16
2023-04-30T09:05:50.331Z,102342.41
2023-04-30T09:08:19.064Z,102340.69
2023-04-30T09:10:46.445Z,102336.44
2023-04-30T09:13:13.875Z,102341.03
2023-04-30T09:15:41.670Z,102328.09
2023-04-30T09:18:10.849Z,102337.56
2023-04-30T09:20:38.626Z,102337.13
2023-04-30T09:23:08.005Z,102335.38
2023-04-30T09:25:43.814Z,102342.03
2023-04-30T09:28:11.969Z,102338.50
2023-04-30T09:30:39.578Z,102339.09
2023-04-30T09:33:08.358Z,102335.03
2023-04-30T09:35:44.391Z,102327.19
2023-04-30T09:38:30.991Z,102336.41
2023-04-30T09:41:01.843Z,102334.69
2023-04-30T09:43:29.640Z,102320.50
2023-04-30T09:45:58.844Z,102328.22
2023-04-30T09:48:29.848Z,102331.34
2023-04-30T09:50:56.756Z,102327.84
2023-04-30T09:53:23.785Z,102319.81
2023-04-30T09:55:51.566Z,102309.22
2023-04-30T09:58:19.470Z,102324.56
2023-04-30T10:00:48.319Z,102308.06
2023-04-30T10:03:16.045Z,102308.44
2023-04-30T10:05:47.125Z,102314.25
2023-04-30T10:08:22.061Z,102311.63
2023-04-30T10:10:53.453Z,102304.41
2023-04-30T10:13:21.083Z,102301.69
2023-04-30T10:15:54.191Z,102300.75
2023-04-30T10:18:30.716Z,102304.28
2023-04-30T10:20:59.278Z,102295.56
2023-04-30T10:23:25.973Z,102291.28
2023-04-30T10:25:53.376Z,102296.56
2023-04-30T10:28:20.178Z,102299.47
2023-04-30T10:30:47.659Z,102287.41
2023-04-30T10:33:31.740Z,102287.19
2023-04-30T10:36:08.132Z,102286.13
2023-04-30T10:38:36.149Z,102282.19
2023-04-30T10:41:06.148Z,102287.72
2023-04-30T10:43:35.758Z,102280.88
2023-04-30T10:46:02.842Z,102274.22
2023-04-30T10:48:31.167Z,102274.59
2023-04-30T10:50:59.569Z,102284.16
2023-04-30T10:53:30.246Z,102264.28
2023-04-30T10:56:06.417Z,102263.44
2023-04-30T10:58:35.416Z,102258.66
2023-04-30T11:01:05.221Z,102253.38
2023-04-30T11:03:34.137Z,102252.78
2023-04-30T11:06:03.921Z,102253.50
2023-04-30T11:08:38.335Z,102251.22
2023-04-30T11:11:05.358Z,102250.72
2023-04-30T11:14:01.731Z,102241.47
2023-04-30T11:16:34.295Z,102240.63
2023-04-30T11:19:11.687Z,102234.28
2023-04-30T11:21:42.347Z,102237.88
2023-04-30T11:24:08.981Z,102219.00
2023-04-30T11:27:05.386Z,102233.22
2023-04-30T11:29:32.095Z,102230.41
2023-04-30T11:32:01.256Z,102220.91
2023-04-30T11:34:28.936Z,102216.06
2023-04-30T11:37:00.130Z,102216.97
2023-04-30T11:39:29.095Z,102211.56
2023-04-30T11:41:55.859Z,102211.72
2023-04-30T11:44:23.952Z,102203.91
2023-04-30T11:46:51.517Z,102206.25
2023-04-30T11:49:18.290Z,102199.13
2023-04-30T11:51:48.780Z,102203.31
2023-04-30T11:54:15.972Z,102192.38
2023-04-30T11:56:50.051Z,102197.72
2023-04-30T11:59:17.785Z,102200.56
2023-04-30T12:01:44.665Z,102198.22
2023-04-30T12:04:11.507Z,102196.31
2023-04-30T12:06:38.276Z,102196.41
2023-04-30T12:09:07.209Z,102168.78
2023-04-30T12:11:35.168Z,102183.00
2023-04-30T12:14:14.600Z,102183.94
2023-04-30T12:16:42.690Z,102173.44
2023-04-30T12:19:09.586Z,102166.66
2023-04-30T12:21:36.629Z,102183.72
2023-04-30T12:24:03.641Z,102176.59
2023-04-30T12:26:40.601Z,102172.34
2023-04-30T12:29:16.021Z,102171.91
2023-04-30T12:31:43.462Z,102171.44
2023-04-30T12:34:13.079Z,102166.75
2023-04-30T12:36:44.229Z,102170.84
2023-04-30T12:39:13.000Z,102170.81
2023-04-30T12:41:43.974Z,102159.59
2023-04-30T12:44:14.408Z,102155.88
2023-04-30T12:46:41.253Z,102149.31
2023-04-30T12:49:07.971Z,102156.97
2023-04-30T12:51:41.019Z,102157.47
2023-04-30T12:54:07.892Z,102153.94
2023-04-30T12:56:34.433Z,102158.81
2023-04-30T12:59:01.031Z,102154.56
2023-04-30T13:01:27.657Z,102140.72
2023-04-30T13:03:54.441Z,102130.59
2023-04-30T13:06:23.225Z,102136.63
2023-04-30T13:08:58.530Z,102136.41
2023-04-30T13:11:26.735Z,102132.44
2023-04-30T13:13:55.303Z,102141.19
2023-04-30T13:16:22.756Z,102134.41
2023-04-30T13:18:49.499Z,102132.78
2023-04-30T13:21:15.970Z,102121.56
2023-04-30T13:23:52.036Z,102113.84
2023-04-30T13:26:21.268Z,102113.66
2023-04-30T13:28:47.874Z,102110.44
2023-04-30T13:31:14.521Z,102103.66
2023-04-30T13:33:41.577Z,102104.03
2023-04-30T13:36:08.296Z,102110.28
2023-04-30T13:38:34.828Z,102106.06
2023-04-30T13:41:01.349Z,102106.31
2023-04-30T13:43:27.872Z,102102.94
2023-04-30T13:45:54.365Z,102099.56
2023-04-30T13:48:20.896Z,102095.66
2023-04-30T13:50:47.456Z,102104.00
2023-04-30T13:53:14.214Z,102098.03
2023-04-30T13:55:40.840Z,102097.09
2023-04-30T13:58:07.331Z,102074.47
2023-04-30T14:00:33.896Z,102083.38
2023-04-30T14:03:00.471Z,102077.94
2023-04-30T14:05:27.362Z,102080.72
2023-04-30T14:07:53.875Z,102080.09
2023-04-30T14:10:20.437Z,102078.34
2023-04-30T14:12:48.046Z,102074.00
2023-04-30T14:15:14.792Z,102072.44
2023-04-30T14:17:41.342Z,102074.16
2023-04-30T14:20:08.720Z,102075.31
2023-04-30T14:22:38.291Z,102069.28
2023-04-30T14:25:05.835Z,102076.25
2023-04-30T14:27:32.357Z,102071.59
2023-04-30T14:29:58.856Z,102076.03
2023-04-30T14:32:26.118Z,102069.13
2023-04-30T14:34:53.228Z,102070.56
2023-04-30T14:37:20.223Z,102063.91
2023-04-30T14:39:46.699Z,102058.34
2023-04-30T14:42:15.129Z,102060.31
2023-04-30T14:44:41.849Z,102053.09
2023-04-30T14:47:08.342Z,102058.94
2023-04-30T14:49:34.925Z,102053.94
2023-04-30T14:52:01.832Z,102053.94
2023-04-30T14:54:28.411Z,102052.03
2023-04-30T14:56:55.202Z,102046.72
2023-04-30T14:59:21.951Z,102049.50
2023-04-30T15:01:48.591Z,102042.28
2023-04-30T15:04:15.109Z,102032.84
2023-04-30T15:06:42.104Z,102037.84
2023-04-30T15:09:08.754Z,102036.19
2023-04-30T15:11:35.277Z,102039.50
2023-04-30T15:14:01.785Z,102030.63
2023-04-30T15:16:29.676Z,102031.47
2023-04-30T15:18:56.589Z,102030.06
2023-04-30T15:21:23.156Z,102027.50
2023-04-30T15:23:50.484Z,102025.56
2023-04-30T15:26:17.132Z,102017.22
2023-04-30T15:28:44.262Z,102015.59
2023-04-30T15:31:11.428Z,102014.19
2023-04-30T15:33:41.885Z,102010.06
2023-04-30T15:36:10.575Z,102020.34
2023-04-30T15:38:37.059Z,102002.84
2023-04-30T15:41:03.562Z,102011.75
2023-04-30T15:43:32.233Z,102011.16
2023-04-30T15:45:58.871Z,102010.03
2023-04-30T15:48:25.606Z,102009.72
2023-04-30T15:50:52.221Z,102013.59
2023-04-30T15:53:18.718Z,101999.91
2023-04-30T15:55:46.559Z,102004.88
2023-04-30T15:58:13.136Z,101999.88
2023-04-30T16:00:39.809Z,101986.06
2023-04-30T16:03:06.579Z,101988.06
2023-04-30T16:05:35.003Z,101987.22
2023-04-30T16:08:01.517Z,101974.44
2023-04-30T16:10:28.911Z,101975.50
2023-04-30T16:12:55.460Z,101979.34
2023-04-30T16:15:22.114Z,101974.84
2023-04-30T16:17:48.725Z,101973.69
2023-04-30T16:20:15.914Z,101975.34
2023-04-30T16:22:42.494Z,101976.63
2023-04-30T16:25:10.189Z,101966.03
2023-04-30T16:27:37.519Z,101975.63
2023-04-30T16:30:05.627Z,101966.34
2023-04-30T16:32:32.305Z,101972.69
2023-04-30T16:34:59.075Z,101970.28
2023-04-30T16:37:26.465Z,101969.78
2023-04-30T16:39:53.329Z,101968.41
2023-04-30T16:42:20.358Z,101965.16
2023-04-30T16:44:46.888Z,101960.81
2023-04-30T16:47:13.425Z,101962.00
2023-04-30T16:49:39.978Z,101966.84
2023-04-30T16:52:07.293Z,101957.19
2023-04-30T16:54:33.816Z,101957.75
2023-04-30T16:57:00.616Z,101950.00
2023-04-30T16:59:27.143Z,101954.47
2023-04-30T17:01:56.311Z,101953.03
2023-04-30T17:04:22.829Z,101945.53
2023-04-30T17:06:49.436Z,101951.09
2023-04-30T17:09:16.688Z,101943.91
2023-04-30T17:11:43.282Z,101937.22
2023-04-30T17:14:09.800Z,101942.78
2023-04-30T17:16:36.555Z,101938.06
2023-04-30T17:19:03.231Z,101934.47
2023-04-30T17:21:30.139Z,101933.31
2023-04-30T17:23:56.932Z,101919.28
2023-04-30T17:26:24.762Z,101930.97
2023-04-30T17:28:51.369Z,101922.63
2023-04-30T17:31:19.066Z,101924.31
2023-04-30T17:33:46.332Z,101929.38
2023-04-30T17:36:13.254Z,101929.94
2023-04-30T17:38:39.797Z,101924.72
2023-04-30T17:41:06.618Z,101923.38
2023-04-30T17:43:33.158Z,101923.91
2023-04-30T17:45:59.784Z,101927.28
2023-04-30T17:48:26.728Z,101921.19
2023-04-30T17:50:53.972Z,101925.66
2023-04-30T17:53:20.621Z,101920.66
2023-04-30T17:55:47.195Z,101921.25
2023-04-30T17:58:13.967Z,101921.81
2023-04-30T18:00:43.176Z,101925.72
2023-04-30T18:03:09.801Z,101922.94
2023-04-30T18:05:36.487Z,101918.50
2023-04-30T18:08:03.316Z,101915.47
2023-04-30T18:10:29.854Z,101909.06
2023-04-30T18:12:58.896Z,101912.38
2023-04-30T18:15:25.948Z,101908.78
2023-04-30T18:17:52.916Z,101910.44
2023-04-30T18:20:20.074Z,101908.75
2023-04-30T18:22:46.614Z,101906.56
2023-04-30T18:25:13.561Z,101906.28
2023-04-30T18:27:40.972Z,101904.59
2023-04-30T18:30:09.287Z,101904.59
2023-04-30T18:32:37.174Z,101904.03
2023-04-30T18:35:04.571Z,101901.81
2023-04-30T18:37:31.846Z,101898.50
2023-04-30T18:39:59.049Z,101903.72
2023-04-30T18:42:25.735Z,101898.19
2023-04-30T18:44:52.379Z,101895.13
2023-04-30T18:47:19.063Z,101894.56
2023-04-30T18:49:45.593Z,101895.94
2023-04-30T18:52:12.258Z,101896.75
2023-04-30T18:54:38.773Z,101895.13
2023-04-30T18:57:05.773Z,101891.72
2023-04-30T18:59:32.288Z,101890.03
2023-04-30T19:01:59.139Z,101895.03
2023-04-30T19:04:26.305Z,101891.13
2023-04-30T19:06:54.827Z,101896.38
2023-04-30T19:09:21.603Z,101902.44
2023-04-30T19:11:48.897Z,101900.19
2023-04-30T19:14:15.439Z,101906.56
2023-04-30T19:16:42.019Z,101901.59
2023-04-30T19:19:08.551Z,101896.59
2023-04-30T19:21:36.250Z,101893.75
2023-04-30T19:24:03.485Z,101898.50
2023-04-30T19:26:32.161Z,101901.50
2023-04-30T19:28:59.789Z,101904.00
2023-04-30T19:31:26.700Z,101902.59
2023-04-30T19:33:53.285Z,101904.25
2023-04-30T19:36:19.893Z,101906.44
2023-04-30T19:38:46.384Z,101900.34
2023-04-30T19:41:12.888Z,101902.50
2023-04-30T19:43:39.429Z,101897.78
2023-04-30T19:46:06.126Z,101898.84
2023-04-30T19:48:32.841Z,101905.78
2023-04-30T19:51:02.414Z,101903.25
2023-04-30T19:53:29.077Z,101907.38
2023-04-30T19:55:55.706Z,101899.59
2023-04-30T19:58:22.236Z,101896.25
2023-04-30T20:00:48.899Z,101907.31
2023-04-30T20:03:16.762Z,101900.63
2023-04-30T20:05:44.659Z,101892.81
2023-04-30T20:08:11.288Z,101896.13
2023-04-30T20:10:38.505Z,101894.44
2023-04-30T20:13:06.267Z,101898.03
2023-04-30T20:15:33.650Z,101894.44
2023-04-30T20:18:01.285Z,101899.94
2023-04-30T20:20:28.921Z,101894.63
2023-04-30T20:22:56.197Z,101888.25
2023-04-30T20:25:25.695Z,101886.03
2023-04-30T20:27:52.162Z,101896.50
2023-04-30T20:30:18.755Z,101886.22
2023-04-30T20:32:45.480Z,101893.38
2023-04-30T20:35:12.100Z,101887.53
2023-04-30T20:37:38.588Z,101887.53
2023-04-30T20:40:08.045Z,101884.78
2023-04-30T20:42:34.835Z,101878.66
2023-04-30T20:45:03.821Z,101878.34
2023-04-30T20:47:31.896Z,101877.44
2023-04-30T20:49:58.719Z,101879.66
2023-04-30T20:52:26.117Z,101888.78
2023-04-30T20:54:52.760Z,101875.22
2023-04-30T20:57:19.316Z,101882.38
2023-04-30T20:59:45.908Z,101878.75
2023-04-30T21:02:12.519Z,101877.31
2023-04-30T21:04:39.060Z,101874.25
2023-04-30T21:07:05.689Z,101876.16
2023-04-30T21:09:34.480Z,101868.94
2023-04-30T21:12:04.307Z,101865.03
2023-04-30T21:14:31.636Z,101867.53
2023-04-30T21:16:59.268Z,101864.19
2023-04-30T21:19:26.497Z,101855.06
2023-04-30T21:21:53.166Z,101861.13
2023-04-30T21:24:19.788Z,101853.84
2023-04-30T21:26:46.608Z,101856.63
2023-04-30T21:29:13.285Z,101863.47
2023-04-30T21:31:39.773Z,101855.72
2023-04-30T21:34:06.333Z,101853.72
2023-04-30T21:36:32.990Z,101856.50
2023-04-30T21:38:59.595Z,101846.56
2023-04-30T21:41:27.940Z,101855.66
2023-04-30T21:43:55.015Z,101859.22
2023-04-30T21:46:22.665Z,101851.50
2023-04-30T21:48:49.356Z,101842.34
2023-04-30T21:51:17.124Z,101838.69
2023-04-30T21:53:46.581Z,101843.59
2023-04-30T21:56:13.485Z,101840.84
2023-04-30T21:58:39.956Z,101839.72
2023-04-30T22:01:06.648Z,101818.03
2023-04-30T22:03:34.201Z,101831.06
2023-04-30T22:06:01.293Z,101825.72
2023-04-30T22:08:28.576Z,101829.31
2023-04-30T22:10:58.409Z,101828.44
2023-04-30T22:13:26.219Z,101833.13
2023-04-30T22:15:52.854Z,101823.75
2023-04-30T22:18:20.444Z,101824.00
2023-04-30T22:20:49.241Z,101817.84
2023-04-30T22:23:16.551Z,101812.06
2023-04-30T22:25:43.234Z,101807.38
2023-04-30T22:28:10.165Z,101802.38
2023-04-30T22:30:37.748Z,101805.66
2023-04-30T22:33:04.376Z,101789.88
2023-04-30T22:35:31.669Z,101794.75
2023-04-30T22:37:58.621Z,101800.59
2023-04-30T22:40:25.234Z,101797.75
2023-04-30T22:42:51.904Z,101801.34
2023-04-30T22:45:18.514Z,101797.44
2023-04-30T22:47:45.834Z,101800.97
2023-04-30T22:50:12.514Z,101794.66
2023-04-30T22:52:39.115Z,101802.00
2023-04-30T22:55:06.527Z,101800.91
2023-04-30T22:57:33.172Z,101802.00
2023-04-30T22:59:59.756Z,101795.66
2023-04-30T23:02:26.466Z,101795.31
2023-04-30T23:04:53.026Z,101798.31
2023-04-30T23:07:19.684Z,101796.69
2023-04-30T23:09:46.223Z,101787.81
2023-04-30T23:12:12.835Z,101790.00
2023-04-30T23:14:39.357Z,101782.56
2023-04-30T23:17:06.227Z,101783.66
2023-04-30T23:19:33.450Z,101790.25
2023-04-30T23:21:59.939Z,101774.47
2023-04-30T23:24:26.426Z,101780.63
2023-04-30T23:26:52.959Z,101774.31
2023-04-30T23:29:19.675Z,101775.13
2023-04-30T23:31:46.293Z,101775.38
2023-04-30T23:34:12.961Z,101767.88
2023-04-30T23:36:40.106Z,101764.28
2023-04-30T23:39:06.674Z,101754.56
2023-04-30T23:41:33.149Z,101761.41
2023-04-30T23:43:59.615Z,101759.19
2023-04-30T23:46:26.238Z,101753.09
2023-04-30T23:48:52.893Z,101751.41
2023-04-30T23:51:21.399Z,101750.03
2023-04-30T23:53:48.296Z,101748.09
2023-04-30T23:56:15.661Z,101736.41
2023-04-30T23:58:42.125Z,101727.81
